sensor_id;sensor_type;location;lat;lon;timestamp;pressure;altitude;pressure_sealevel;temperature;humidity
75681;BME280;64294;49.176;16.626;2023-10-19T00:01:17;98451.53;;;8.27;72.13
75681;BME280;64294;49.176;16.626;2023-10-19T00:03:43;98450.44;;;8.30;71.77
75681;BME280;64294;49.176;16.626;2023-10-19T00:06:09;98442.06;;;8.30;71.69
75681;BME280;64294;49.176;16.626;2023-10-19T00:08:36;98439.25;;;8.30;71.65
75681;BME280;64294;49.176;16.626;2023-10-19T00:11:08;98433.09;;;8.31;71.99
75681;BME280;64294;49.176;16.626;2023-10-19T00:13:47;98425.69;;;8.34;72.06
75681;BME280;64294;49.176;16.626;2023-10-19T00:16:19;98427.44;;;8.37;72.01
75681;BME280;64294;49.176;16.626;2023-10-19T00:18:48;98422.44;;;8.43;70.88
75681;BME280;64294;49.176;16.626;2023-10-19T00:21:18;98430.84;;;8.43;70.48
75681;BME280;64294;49.176;16.626;2023-10-19T00:23:53;98422.41;;;8.56;69.73
75681;BME280;64294;49.176;16.626;2023-10-19T00:26:39;98418.06;;;8.55;70.02
75681;BME280;64294;49.176;16.626;2023-10-19T00:29:05;98426.69;;;8.57;69.63
75681;BME280;64294;49.176;16.626;2023-10-19T00:31:51;98413.09;;;8.61;69.55
75681;BME280;64294;49.176;16.626;2023-10-19T00:34:17;98411.59;;;8.60;69.10
75681;BME280;64294;49.176;16.626;2023-10-19T00:36:45;98404.56;;;8.67;69.41
75681;BME280;64294;49.176;16.626;2023-10-19T00:39:11;98407.16;;;8.65;69.14
75681;BME280;64294;49.176;16.626;2023-10-19T00:41:55;98405.66;;;8.64;69.04
75681;BME280;64294;49.176;16.626;2023-10-19T00:44:23;98394.31;;;8.69;68.85
75681;BME280;64294;49.176;16.626;2023-10-19T00:47:09;98389.44;;;8.70;69.14
75681;BME280;64294;49.176;16.626;2023-10-19T00:49:39;98387.59;;;8.72;68.50
75681;BME280;64294;49.176;16.626;2023-10-19T00:52:06;98388.91;;;8.71;69.06
75681;BME280;64294;49.176;16.626;2023-10-19T00:54:48;98361.31;;;8.75;69.03
75681;BME280;64294;49.176;16.626;2023-10-19T00:57:17;98351.00;;;8.70;68.85
75681;BME280;64294;49.176;16.626;2023-10-19T01:00:02;98345.94;;;8.69;69.68
75681;BME280;64294;49.176;16.626;2023-10-19T01:02:39;98340.34;;;8.69;69.29
75681;BME280;64294;49.176;16.626;2023-10-19T01:05:11;98339.59;;;8.68;69.35
75681;BME280;64294;49.176;16.626;2023-10-19T01:07:42;98330.59;;;8.62;69.64
75681;BME280;64294;49.176;16.626;2023-10-19T01:10:09;98326.06;;;8.59;70.72
75681;BME280;64294;49.176;16.626;2023-10-19T01:12:45;98325.88;;;8.57;70.36
75681;BME280;64294;49.176;16.626;2023-10-19T01:15:15;98333.19;;;8.60;71.13
75681;BME280;64294;49.176;16.626;2023-10-19T01:17:54;98324.16;;;8.54;71.11
75681;BME280;64294;49.176;16.626;2023-10-19T01:20:31;98312.06;;;8.59;70.53
75681;BME280;64294;49.176;16.626;2023-10-19T01:23:05;98321.22;;;8.60;71.40
75681;BME280;64294;49.176;16.626;2023-10-19T01:28:29;98320.59;;;8.74;70.38
75681;BME280;64294;49.176;16.626;2023-10-19T01:31:17;98309.09;;;8.86;69.65
75681;BME280;64294;49.176;16.626;2023-10-19T01:33:48;98318.59;;;8.83;69.16
75681;BME280;64294;49.176;16.626;2023-10-19T01:36:16;98301.44;;;8.86;68.84
75681;BME280;64294;49.176;16.626;2023-10-19T01:38:55;98312.09;;;8.88;69.91
75681;BME280;64294;49.176;16.626;2023-10-19T01:41:23;98301.28;;;8.92;69.13
75681;BME280;64294;49.176;16.626;2023-10-19T01:43:50;98307.97;;;8.89;69.44
75681;BME280;64294;49.176;16.626;2023-10-19T01:46:20;98302.19;;;8.87;69.61
75681;BME280;64294;49.176;16.626;2023-10-19T01:48:59;98298.28;;;8.90;69.66
75681;BME280;64294;49.176;16.626;2023-10-19T01:51:28;98304.28;;;8.94;69.80
75681;BME280;64294;49.176;16.626;2023-10-19T01:53:55;98301.28;;;8.92;70.02
75681;BME280;64294;49.176;16.626;2023-10-19T01:56:21;98292.13;;;8.91;69.77
75681;BME280;64294;49.176;16.626;2023-10-19T01:58:47;98291.78;;;8.95;69.95
75681;BME280;64294;49.176;16.626;2023-10-19T02:01:15;98295.34;;;8.95;69.36
75681;BME280;64294;49.176;16.626;2023-10-19T02:03:55;98288.78;;;8.93;69.59
75681;BME280;64294;49.176;16.626;2023-10-19T02:06:26;98285.97;;;8.93;70.39
75681;BME280;64294;49.176;16.626;2023-10-19T02:11:50;98277.41;;;8.98;69.48
75681;BME280;64294;49.176;16.626;2023-10-19T02:14:18;98269.56;;;8.97;69.48
75681;BME280;64294;49.176;16.626;2023-10-19T02:16:51;98275.72;;;8.95;70.18
75681;BME280;64294;49.176;16.626;2023-10-19T02:19:18;98266.75;;;8.97;70.25
75681;BME280;64294;49.176;16.626;2023-10-19T02:21:48;98272.16;;;8.95;69.65
75681;BME280;64294;49.176;16.626;2023-10-19T02:24:14;98267.88;;;8.94;70.20
75681;BME280;64294;49.176;16.626;2023-10-19T02:26:44;98258.34;;;8.97;70.21
75681;BME280;64294;49.176;16.626;2023-10-19T02:29:12;98242.84;;;8.96;70.19
75681;BME280;64294;49.176;16.626;2023-10-19T02:31:38;98241.16;;;8.93;70.32
75681;BME280;64294;49.176;16.626;2023-10-19T02:34:09;98235.94;;;8.97;71.25
75681;BME280;64294;49.176;16.626;2023-10-19T02:36:36;98237.56;;;8.92;71.09
75681;BME280;64294;49.176;16.626;2023-10-19T02:39:08;98229.94;;;8.93;70.60
75681;BME280;64294;49.176;16.626;2023-10-19T02:41:56;98225.84;;;8.94;70.94
75681;BME280;64294;49.176;16.626;2023-10-19T02:44:26;98217.97;;;8.92;71.51
75681;BME280;64294;49.176;16.626;2023-10-19T02:46:53;98200.94;;;8.90;71.27
75681;BME280;64294;49.176;16.626;2023-10-19T02:49:24;98205.25;;;8.91;71.74
75681;BME280;64294;49.176;16.626;2023-10-19T02:51:52;98210.84;;;8.91;71.93
75681;BME280;64294;49.176;16.626;2023-10-19T02:54:20;98201.31;;;8.87;72.03
75681;BME280;64294;49.176;16.626;2023-10-19T02:56:56;98187.91;;;8.93;72.65
75681;BME280;64294;49.176;16.626;2023-10-19T02:59:31;98193.09;;;8.89;73.32
75681;BME280;64294;49.176;16.626;2023-10-19T03:02:01;98187.84;;;8.85;72.92
75681;BME280;64294;49.176;16.626;2023-10-19T03:04:44;98186.75;;;8.88;73.07
75681;BME280;64294;49.176;16.626;2023-10-19T03:07:11;98181.34;;;8.90;73.89
75681;BME280;64294;49.176;16.626;2023-10-19T03:09:43;98183.59;;;8.92;73.32
75681;BME280;64294;49.176;16.626;2023-10-19T03:12:21;98180.03;;;8.91;73.38
75681;BME280;64294;49.176;16.626;2023-10-19T03:14:51;98181.34;;;8.90;74.77
75681;BME280;64294;49.176;16.626;2023-10-19T03:17:20;98178.91;;;8.87;74.88
75681;BME280;64294;49.176;16.626;2023-10-19T03:19:48;98170.69;;;8.89;74.20
75681;BME280;64294;49.176;16.626;2023-10-19T03:22:14;98173.28;;;8.87;74.96
75681;BME280;64294;49.176;16.626;2023-10-19T03:24:39;98174.09;;;8.95;75.11
75681;BME280;64294;49.176;16.626;2023-10-19T03:27:17;98173.91;;;9.00;74.47
75681;BME280;64294;49.176;16.626;2023-10-19T03:29:50;98185.84;;;8.93;75.23
75681;BME280;64294;49.176;16.626;2023-10-19T03:32:21;98168.31;;;9.00;74.67
75681;BME280;64294;49.176;16.626;2023-10-19T03:35:00;98155.56;;;8.92;75.23
75681;BME280;64294;49.176;16.626;2023-10-19T03:37:27;98164.38;;;8.96;75.79
75681;BME280;64294;49.176;16.626;2023-10-19T03:39:56;98155.94;;;8.88;75.48
75681;BME280;64294;49.176;16.626;2023-10-19T03:42:21;98159.28;;;8.87;75.77
75681;BME280;64294;49.176;16.626;2023-10-19T03:44:50;98155.97;;;8.96;75.80
75681;BME280;64294;49.176;16.626;2023-10-19T03:47:19;98155.19;;;8.88;76.88
75681;BME280;64294;49.176;16.626;2023-10-19T03:49:54;98163.97;;;8.92;76.32
75681;BME280;64294;49.176;16.626;2023-10-19T03:52:20;98154.06;;;8.91;76.67
75681;BME280;64294;49.176;16.626;2023-10-19T03:54:48;98152.19;;;8.86;76.54
75681;BME280;64294;49.176;16.626;2023-10-19T03:57:16;98143.78;;;8.86;77.09
75681;BME280;64294;49.176;16.626;2023-10-19T03:59:48;98132.75;;;8.88;77.50
75681;BME280;64294;49.176;16.626;2023-10-19T04:02:24;98128.66;;;8.89;77.04
75681;BME280;64294;49.176;16.626;2023-10-19T04:04:50;98128.28;;;8.85;77.84
75681;BME280;64294;49.176;16.626;2023-10-19T04:07:20;98121.53;;;8.80;77.66
75681;BME280;64294;49.176;16.626;2023-10-19T04:09:51;98119.50;;;8.80;77.62
75681;BME280;64294;49.176;16.626;2023-10-19T04:12:27;98124.91;;;8.78;78.54
75681;BME280;64294;49.176;16.626;2023-10-19T04:14:54;98123.41;;;8.77;78.93
75681;BME280;64294;49.176;16.626;2023-10-19T04:17:24;98117.44;;;8.81;78.53
75681;BME280;64294;49.176;16.626;2023-10-19T04:19:50;98119.84;;;8.77;79.56
75681;BME280;64294;49.176;16.626;2023-10-19T04:22:18;98114.06;;;8.83;79.14
75681;BME280;64294;49.176;16.626;2023-10-19T04:24:53;98104.91;;;8.82;79.20
75681;BME280;64294;49.176;16.626;2023-10-19T04:27:19;98106.78;;;8.79;79.61
75681;BME280;64294;49.176;16.626;2023-10-19T04:29:51;98116.69;;;8.80;79.58
75681;BME280;64294;49.176;16.626;2023-10-19T04:32:20;98108.09;;;8.78;79.71
75681;BME280;64294;49.176;16.626;2023-10-19T04:34:54;98104.38;;;8.84;79.76
75681;BME280;64294;49.176;16.626;2023-10-19T04:37:20;98112.19;;;8.77;79.34
75681;BME280;64294;49.176;16.626;2023-10-19T04:39:50;98119.84;;;8.77;79.90
75681;BME280;64294;49.176;16.626;2023-10-19T04:42:17;98120.78;;;8.79;79.36
75681;BME280;64294;49.176;16.626;2023-10-19T04:44:44;98109.41;;;8.77;79.83
75681;BME280;64294;49.176;16.626;2023-10-19T04:47:10;98095.41;;;8.85;79.56
75681;BME280;64294;49.176;16.626;2023-10-19T04:49:35;98089.78;;;8.77;80.23
75681;BME280;64294;49.176;16.626;2023-10-19T04:52:00;98080.06;;;8.78;80.21
75681;BME280;64294;49.176;16.626;2023-10-19T04:54:26;98071.28;;;8.74;80.85
75681;BME280;64294;49.176;16.626;2023-10-19T04:56:52;98052.78;;;8.71;81.31
75681;BME280;64294;49.176;16.626;2023-10-19T04:59:20;98032.97;;;8.69;81.86
75681;BME280;64294;49.176;16.626;2023-10-19T05:01:46;98021.56;;;8.67;81.60
75681;BME280;64294;49.176;16.626;2023-10-19T05:04:14;98025.13;;;8.68;81.52
75681;BME280;64294;49.176;16.626;2023-10-19T05:06:44;98023.25;;;8.70;81.32
75681;BME280;64294;49.176;16.626;2023-10-19T05:09:13;98024.19;;;8.65;82.58
75681;BME280;64294;49.176;16.626;2023-10-19T05:11:38;98046.97;;;8.69;82.81
75681;BME280;64294;49.176;16.626;2023-10-19T05:14:05;98066.78;;;8.71;82.20
75681;BME280;64294;49.176;16.626;2023-10-19T05:16:30;98077.47;;;8.80;81.88
75681;BME280;64294;49.176;16.626;2023-10-19T05:18:56;98067.38;;;8.77;81.79
75681;BME280;64294;49.176;16.626;2023-10-19T05:21:22;98065.69;;;8.74;83.26
75681;BME280;64294;49.176;16.626;2023-10-19T05:23:47;98063.63;;;8.75;82.68
75681;BME280;64294;49.176;16.626;2023-10-19T05:26:13;98066.22;;;8.73;82.99
75681;BME280;64294;49.176;16.626;2023-10-19T05:28:40;98066.97;;;8.73;83.20
75681;BME280;64294;49.176;16.626;2023-10-19T05:31:08;98073.34;;;8.74;83.45
75681;BME280;64294;49.176;16.626;2023-10-19T05:33:37;98064.22;;;8.81;83.42
75681;BME280;64294;49.176;16.626;2023-10-19T05:36:03;98051.50;;;8.80;83.99
75681;BME280;64294;49.176;16.626;2023-10-19T05:38:30;98063.25;;;8.78;84.75
75681;BME280;64294;49.176;16.626;2023-10-19T05:40:57;98073.34;;;8.82;84.21
75681;BME280;64294;49.176;16.626;2023-10-19T05:43:25;98065.31;;;8.78;84.83
75681;BME280;64294;49.176;16.626;2023-10-19T05:45:50;98062.16;;;8.89;86.18
75681;BME280;64294;49.176;16.626;2023-10-19T05:48:16;98061.59;;;8.91;84.64
75681;BME280;64294;49.176;16.626;2023-10-19T05:50:45;98062.91;;;8.90;84.47
75681;BME280;64294;49.176;16.626;2023-10-19T05:53:10;98059.72;;;8.86;85.16
75681;BME280;64294;49.176;16.626;2023-10-19T05:55:36;98058.63;;;8.89;84.71
75681;BME280;64294;49.176;16.626;2023-10-19T05:58:01;98040.88;;;8.86;85.14
75681;BME280;64294;49.176;16.626;2023-10-19T06:00:33;98037.88;;;8.84;85.84
75681;BME280;64294;49.176;16.626;2023-10-19T06:02:59;98045.38;;;8.97;85.49
75681;BME280;64294;49.176;16.626;2023-10-19T06:05:27;98047.22;;;8.87;86.25
75681;BME280;64294;49.176;16.626;2023-10-19T06:07:55;98029.28;;;8.90;86.29
75681;BME280;64294;49.176;16.626;2023-10-19T06:10:24;98030.78;;;8.91;85.91
75681;BME280;64294;49.176;16.626;2023-10-19T06:12:51;98027.81;;;8.96;86.16
75681;BME280;64294;49.176;16.626;2023-10-19T06:15:19;98036.78;;;8.95;86.71
75681;BME280;64294;49.176;16.626;2023-10-19T06:17:46;98026.88;;;8.94;86.50
75681;BME280;64294;49.176;16.626;2023-10-19T06:20:14;98024.28;;;8.96;87.43
75681;BME280;64294;49.176;16.626;2023-10-19T06:22:47;98025.22;;;8.98;87.67
75681;BME280;64294;49.176;16.626;2023-10-19T06:25:18;98022.97;;;9.04;87.48
75681;BME280;64294;49.176;16.626;2023-10-19T06:27:44;98029.13;;;9.10;87.13
75681;BME280;64294;49.176;16.626;2023-10-19T06:30:11;98029.69;;;9.09;87.14
75681;BME280;64294;49.176;16.626;2023-10-19T06:32:36;98029.31;;;9.05;87.61
75681;BME280;64294;49.176;16.626;2023-10-19T06:35:03;98042.22;;;9.08;88.06
75681;BME280;64294;49.176;16.626;2023-10-19T06:37:29;98038.91;;;9.32;87.47
75681;BME280;64294;49.176;16.626;2023-10-19T06:39:55;98039.06;;;9.27;87.32
75681;BME280;64294;49.176;16.626;2023-10-19T06:42:20;98032.72;;;9.19;88.82
75681;BME280;64294;49.176;16.626;2023-10-19T06:44:46;98030.09;;;9.21;88.59
75681;BME280;64294;49.176;16.626;2023-10-19T06:47:11;98025.59;;;9.25;89.08
75681;BME280;64294;49.176;16.626;2023-10-19T06:49:40;98020.75;;;9.26;89.05
75681;BME280;64294;49.176;16.626;2023-10-19T06:52:05;98029.72;;;9.39;88.38
75681;BME280;64294;49.176;16.626;2023-10-19T06:54:31;98031.22;;;9.33;88.34
75681;BME280;64294;49.176;16.626;2023-10-19T06:56:57;98020.75;;;9.56;88.12
75681;BME280;64294;49.176;16.626;2023-10-19T06:59:23;98025.41;;;9.77;87.31
75681;BME280;64294;49.176;16.626;2023-10-19T07:01:49;98031.38;;;9.88;86.63
75681;BME280;64294;49.176;16.626;2023-10-19T07:04:15;98025.16;;;10.13;85.24
75681;BME280;64294;49.176;16.626;2023-10-19T07:06:40;98025.91;;;10.13;85.11
75681;BME280;64294;49.176;16.626;2023-10-19T07:09:06;98026.88;;;9.85;86.67
75681;BME280;64294;49.176;16.626;2023-10-19T07:11:32;98017.34;;;9.81;87.61
75681;BME280;64294;49.176;16.626;2023-10-19T07:14:03;98026.13;;;9.92;87.78
75681;BME280;64294;49.176;16.626;2023-10-19T07:16:32;98017.53;;;9.90;87.94
75681;BME280;64294;49.176;16.626;2023-10-19T07:18:57;98007.03;;;9.98;88.81
75681;BME280;64294;49.176;16.626;2023-10-19T07:21:27;98010.19;;;10.02;88.74
75681;BME280;64294;49.176;16.626;2023-10-19T07:23:58;98006.06;;;10.03;89.38
75681;BME280;64294;49.176;16.626;2023-10-19T07:26:27;98026.22;;;10.32;87.45
75681;BME280;64294;49.176;16.626;2023-10-19T07:28:59;98027.38;;;10.22;88.99
75681;BME280;64294;49.176;16.626;2023-10-19T07:31:25;98035.59;;;10.20;89.04
75681;BME280;64294;49.176;16.626;2023-10-19T07:33:55;98031.91;;;10.10;89.71
75681;BME280;64294;49.176;16.626;2023-10-19T07:36:24;98014.34;;;9.94;91.12
75681;BME280;64294;49.176;16.626;2023-10-19T07:38:52;98012.84;;;9.93;91.97
75681;BME280;64294;49.176;16.626;2023-10-19T07:41:17;98004.25;;;9.83;92.59
75681;BME280;64294;49.176;16.626;2023-10-19T07:43:43;97996.38;;;10.05;91.75
75681;BME280;64294;49.176;16.626;2023-10-19T07:46:12;98003.13;;;9.94;92.43
75681;BME280;64294;49.176;16.626;2023-10-19T07:48:37;98000.09;;;9.99;93.08
75681;BME280;64294;49.176;16.626;2023-10-19T07:51:03;98003.47;;;10.06;92.67
75681;BME280;64294;49.176;16.626;2023-10-19T07:53:29;98000.66;;;10.06;92.59
75681;BME280;64294;49.176;16.626;2023-10-19T07:55:55;97990.00;;;10.04;92.59
75681;BME280;64294;49.176;16.626;2023-10-19T07:58:22;97998.94;;;10.25;92.18
75681;BME280;64294;49.176;16.626;2023-10-19T08:00:48;98000.81;;;10.23;92.50
75681;BME280;64294;49.176;16.626;2023-10-19T08:03:14;98002.66;;;10.28;92.20
75681;BME280;64294;49.176;16.626;2023-10-19T08:06:00;98000.56;;;10.36;91.94
75681;BME280;64294;49.176;16.626;2023-10-19T08:08:25;98001.56;;;10.16;92.69
75681;BME280;64294;49.176;16.626;2023-10-19T08:10:58;97995.38;;;10.25;92.13
75681;BME280;64294;49.176;16.626;2023-10-19T08:13:24;97984.84;;;10.33;91.78
75681;BME280;64294;49.176;16.626;2023-10-19T08:15:51;97979.47;;;10.27;91.71
75681;BME280;64294;49.176;16.626;2023-10-19T08:18:16;97982.16;;;10.50;91.13
75681;BME280;64294;49.176;16.626;2023-10-19T08:20:43;97969.34;;;10.65;90.87
75681;BME280;64294;49.176;16.626;2023-10-19T08:23:12;97973.03;;;10.75;89.70
75681;BME280;64294;49.176;16.626;2023-10-19T08:25:43;97975.16;;;10.59;90.07
75681;BME280;64294;49.176;16.626;2023-10-19T08:28:12;97971.13;;;10.77;89.65
75681;BME280;64294;49.176;16.626;2023-10-19T08:30:40;97956.13;;;11.07;88.75
75681;BME280;64294;49.176;16.626;2023-10-19T08:33:06;97960.25;;;11.06;88.23
75681;BME280;64294;49.176;16.626;2023-10-19T08:35:34;97953.03;;;10.96;89.09
75681;BME280;64294;49.176;16.626;2023-10-19T08:38:01;97958.69;;;10.63;90.40
75681;BME280;64294;49.176;16.626;2023-10-19T08:40:29;97958.19;;;10.82;89.48
75681;BME280;64294;49.176;16.626;2023-10-19T08:42:55;97942.41;;;10.61;91.50
75681;BME280;64294;49.176;16.626;2023-10-19T08:45:20;97955.91;;;10.88;90.40
75681;BME280;64294;49.176;16.626;2023-10-19T08:47:57;97945.50;;;10.73;91.11
75681;BME280;64294;49.176;16.626;2023-10-19T08:50:33;97951.66;;;11.04;89.57
75681;BME280;64294;49.176;16.626;2023-10-19T08:53:00;97950.09;;;10.61;91.96
75681;BME280;64294;49.176;16.626;2023-10-19T08:55:27;97947.91;;;10.77;91.98
75681;BME280;64294;49.176;16.626;2023-10-19T08:57:53;97940.75;;;11.08;90.54
75681;BME280;64294;49.176;16.626;2023-10-19T09:00:21;97954.97;;;11.10;90.13
75681;BME280;64294;49.176;16.626;2023-10-19T09:02:51;97957.28;;;11.04;90.15
75681;BME280;64294;49.176;16.626;2023-10-19T09:05:17;97961.34;;;10.86;91.08
75681;BME280;64294;49.176;16.626;2023-10-19T09:07:53;97951.66;;;11.04;91.24
75681;BME280;64294;49.176;16.626;2023-10-19T09:10:28;97953.78;;;11.21;89.92
75681;BME280;64294;49.176;16.626;2023-10-19T09:13:04;97949.69;;;11.14;90.13
75681;BME280;64294;49.176;16.626;2023-10-19T09:15:37;97946.53;;;11.10;90.20
75681;BME280;64294;49.176;16.626;2023-10-19T09:18:24;97944.22;;;10.99;91.27
75681;BME280;64294;49.176;16.626;2023-10-19T09:20:52;97945.56;;;11.15;90.00
75681;BME280;64294;49.176;16.626;2023-10-19T09:23:22;97949.81;;;11.24;89.97
75681;BME280;64294;49.176;16.626;2023-10-19T09:25:49;97940.81;;;11.26;90.03
75681;BME280;64294;49.176;16.626;2023-10-19T09:28:23;97944.53;;;11.28;89.75
75681;BME280;64294;49.176;16.626;2023-10-19T09:30:50;97949.97;;;11.26;90.70
75681;BME280;64294;49.176;16.626;2023-10-19T09:33:20;97947.44;;;11.38;90.21
75681;BME280;64294;49.176;16.626;2023-10-19T09:35:48;97950.59;;;11.42;89.42
75681;BME280;64294;49.176;16.626;2023-10-19T09:38:15;97943.63;;;11.26;90.76
75681;BME280;64294;49.176;16.626;2023-10-19T09:40:42;97942.75;;;11.40;90.61
75681;BME280;64294;49.176;16.626;2023-10-19T09:43:16;97946.84;;;11.22;91.13
75681;BME280;64294;49.176;16.626;2023-10-19T09:45:48;97937.56;;;11.29;91.14
75681;BME280;64294;49.176;16.626;2023-10-19T09:48:20;97929.50;;;11.08;92.14
75681;BME280;64294;49.176;16.626;2023-10-19T09:50:51;97926.75;;;11.26;91.55
75681;BME280;64294;49.176;16.626;2023-10-19T09:53:22;97936.84;;;11.29;91.84
75681;BME280;64294;49.176;16.626;2023-10-19T09:55:49;97934.28;;;10.98;93.42
75681;BME280;64294;49.176;16.626;2023-10-19T09:58:19;97932.38;;;11.01;93.65
75681;BME280;64294;49.176;16.626;2023-10-19T10:00:47;97913.53;;;11.36;91.45
75681;BME280;64294;49.176;16.626;2023-10-19T10:03:52;97915.91;;;11.22;91.91
75681;BME280;64294;49.176;16.626;2023-10-19T10:09:18;97910.19;;;11.30;91.63
75681;BME280;64294;49.176;16.626;2023-10-19T10:11:49;97909.41;;;11.12;92.68
75681;BME280;64294;49.176;16.626;2023-10-19T10:14:38;97905.25;;;11.38;91.45
75681;BME280;64294;49.176;16.626;2023-10-19T10:17:04;97897.41;;;11.53;90.88
75681;BME280;64294;49.176;16.626;2023-10-19T10:19:35;97884.91;;;11.64;89.56
75681;BME280;64294;49.176;16.626;2023-10-19T10:22:04;97883.16;;;11.69;89.69
75681;BME280;64294;49.176;16.626;2023-10-19T10:24:41;97881.94;;;11.79;89.09
75681;BME280;64294;49.176;16.626;2023-10-19T10:27:06;97876.88;;;11.95;88.16
75681;BME280;64294;49.176;16.626;2023-10-19T10:29:35;97878.72;;;11.83;88.67
75681;BME280;64294;49.176;16.626;2023-10-19T10:32:00;97878.81;;;11.93;88.07
75681;BME280;64294;49.176;16.626;2023-10-19T10:36:59;97873.81;;;11.83;89.34
75681;BME280;64294;49.176;16.626;2023-10-19T10:39:27;97866.53;;;11.98;87.92
75681;BME280;64294;49.176;16.626;2023-10-19T10:42:00;97861.06;;;12.00;87.92
75681;BME280;64294;49.176;16.626;2023-10-19T10:44:47;97860.75;;;11.96;88.20
75681;BME280;64294;49.176;16.626;2023-10-19T10:47:18;97855.16;;;12.05;88.57
75681;BME280;64294;49.176;16.626;2023-10-19T10:49:52;97843.84;;;12.23;87.71
75681;BME280;64294;49.176;16.626;2023-10-19T10:52:34;97848.00;;;11.95;88.68
75681;BME280;64294;49.176;16.626;2023-10-19T10:55:08;97836.34;;;12.08;88.77
75681;BME280;64294;49.176;16.626;2023-10-19T10:57:36;97842.84;;;12.01;88.62
75681;BME280;64294;49.176;16.626;2023-10-19T11:00:10;97830.34;;;11.94;89.44
75681;BME280;64294;49.176;16.626;2023-10-19T11:02:41;97840.97;;;11.86;90.58
75681;BME280;64294;49.176;16.626;2023-10-19T11:05:16;97827.72;;;11.62;92.05
75681;BME280;64294;49.176;16.626;2023-10-19T11:08:06;97822.09;;;11.62;91.88
75681;BME280;64294;49.176;16.626;2023-10-19T11:10:34;97825.81;;;11.81;91.41
75681;BME280;64294;49.176;16.626;2023-10-19T11:13:01;97824.66;;;11.85;90.87
75681;BME280;64294;49.176;16.626;2023-10-19T11:15:37;97822.81;;;11.97;89.82
75681;BME280;64294;49.176;16.626;2023-10-19T11:18:06;97817.22;;;11.79;90.32
75681;BME280;64294;49.176;16.626;2023-10-19T11:20:36;97810.56;;;11.85;90.47
75681;BME280;64294;49.176;16.626;2023-10-19T11:23:01;97815.53;;;11.94;90.09
75681;BME280;64294;49.176;16.626;2023-10-19T11:25:29;97804.34;;;11.86;90.38
75681;BME280;64294;49.176;16.626;2023-10-19T11:27:59;97800.81;;;11.86;90.62
75681;BME280;64294;49.176;16.626;2023-10-19T11:32:54;97787.03;;;11.90;90.69
75681;BME280;64294;49.176;16.626;2023-10-19T11:35:29;97787.75;;;11.80;91.38
75681;BME280;64294;49.176;16.626;2023-10-19T11:37:59;97788.13;;;11.94;90.66
75681;BME280;64294;49.176;16.626;2023-10-19T11:40:26;97785.34;;;12.04;90.30
75681;BME280;64294;49.176;16.626;2023-10-19T11:42:52;97788.00;;;12.02;90.45
75681;BME280;64294;49.176;16.626;2023-10-19T11:45:21;97783.41;;;11.97;90.76
75681;BME280;64294;49.176;16.626;2023-10-19T11:47:48;97780.00;;;11.98;90.05
75681;BME280;64294;49.176;16.626;2023-10-19T11:50:14;97776.94;;;11.87;91.81
75681;BME280;64294;49.176;16.626;2023-10-19T11:52:44;97782.75;;;11.89;92.01
75681;BME280;64294;49.176;16.626;2023-10-19T11:55:14;97773.81;;;11.82;92.18
75681;BME280;64294;49.176;16.626;2023-10-19T11:57:40;97778.81;;;11.57;94.04
75681;BME280;64294;49.176;16.626;2023-10-19T12:00:10;97770.69;;;11.78;92.81
75681;BME280;64294;49.176;16.626;2023-10-19T12:02:39;97771.47;;;11.89;92.21
75681;BME280;64294;49.176;16.626;2023-10-19T12:05:15;97768.19;;;11.82;93.39
75681;BME280;64294;49.176;16.626;2023-10-19T12:07:41;97775.09;;;11.72;93.87
75681;BME280;64294;49.176;16.626;2023-10-19T12:10:13;97781.09;;;11.68;95.10
75681;BME280;64294;49.176;16.626;2023-10-19T12:12:38;97783.44;;;11.79;93.78
75681;BME280;64294;49.176;16.626;2023-10-19T12:15:05;97772.44;;;11.74;94.50
75681;BME280;64294;49.176;16.626;2023-10-19T12:17:33;97769.38;;;11.79;94.45
75681;BME280;64294;49.176;16.626;2023-10-19T12:19:59;97758.44;;;11.83;93.59
75681;BME280;64294;49.176;16.626;2023-10-19T12:22:26;97751.03;;;11.88;93.61
75681;BME280;64294;49.176;16.626;2023-10-19T12:24:57;97745.16;;;11.94;92.92
75681;BME280;64294;49.176;16.626;2023-10-19T12:27:25;97754.94;;;11.93;93.03
75681;BME280;64294;49.176;16.626;2023-10-19T12:29:51;97740.13;;;11.92;93.58
75681;BME280;64294;49.176;16.626;2023-10-19T12:32:19;97747.56;;;12.07;92.45
75681;BME280;64294;49.176;16.626;2023-10-19T12:34:45;97740.94;;;12.12;92.14
75681;BME280;64294;49.176;16.626;2023-10-19T12:37:10;97732.44;;;12.02;92.74
75681;BME280;64294;49.176;16.626;2023-10-19T12:39:41;97739.03;;;11.88;93.96
75681;BME280;64294;49.176;16.626;2023-10-19T12:42:16;97729.59;;;11.93;93.31
75681;BME280;64294;49.176;16.626;2023-10-19T12:44:41;97727.09;;;12.33;91.61
75681;BME280;64294;49.176;16.626;2023-10-19T12:47:07;97722.31;;;12.26;91.32
75681;BME280;64294;49.176;16.626;2023-10-19T12:49:40;97716.56;;;12.43;90.31
75681;BME280;64294;49.176;16.626;2023-10-19T12:52:09;97713.78;;;12.63;89.99
75681;BME280;64294;49.176;16.626;2023-10-19T12:54:35;97711.38;;;12.40;90.25
75681;BME280;64294;49.176;16.626;2023-10-19T12:57:02;97708.66;;;12.23;90.93
75681;BME280;64294;49.176;16.626;2023-10-19T12:59:29;97704.41;;;12.31;91.17
75681;BME280;64294;49.176;16.626;2023-10-19T13:01:55;97707.25;;;12.51;90.19
75681;BME280;64294;49.176;16.626;2023-10-19T13:04:24;97706.78;;;12.44;89.96
75681;BME280;64294;49.176;16.626;2023-10-19T13:06:51;97704.44;;;12.51;89.78
75681;BME280;64294;49.176;16.626;2023-10-19T13:09:17;97714.09;;;12.48;90.21
75681;BME280;64294;49.176;16.626;2023-10-19T13:11:59;97705.50;;;12.65;89.40
75681;BME280;64294;49.176;16.626;2023-10-19T13:14:25;97704.47;;;12.70;89.15
75681;BME280;64294;49.176;16.626;2023-10-19T13:16:52;97700.63;;;12.94;88.06
75681;BME280;64294;49.176;16.626;2023-10-19T13:19:22;97697.09;;;12.84;88.42
75681;BME280;64294;49.176;16.626;2023-10-19T13:21:51;97691.88;;;13.10;87.55